sensor_id;sensor_type;location;lat;lon;timestamp;P1;durP1;ratioP1;P2;durP2;ratioP2
13343;SDS011;6741;48.964;9.406;2023-02-15T00:01:25;22.37;;;16.07;;
13343;SDS011;6741;48.964;9.406;2023-02-15T00:03:52;23.37;;;16.27;;
13343;SDS011;6741;48.964;9.406;2023-02-15T00:06:20;26.80;;;17.13;;
13343;SDS011;6741;48.964;9.406;2023-02-15T00:08:47;29.87;;;18.03;;
13343;SDS011;6741;48.964;9.406;2023-02-15T00:11:15;25.80;;;17.60;;
13343;SDS011;6741;48.964;9.406;2023-02-15T00:14:04;22.87;;;15.83;;
13343;SDS011;6741;48.964;9.406;2023-02-15T00:16:32;25.70;;;16.53;;
13343;SDS011;6741;48.964;9.406;2023-02-15T00:18:59;23.70;;;16.23;;
13343;SDS011;6741;48.964;9.406;2023-02-15T00:21:28;27.30;;;16.93;;
13343;SDS011;6741;48.964;9.406;2023-02-15T00:23:56;24.40;;;16.03;;
13343;SDS011;6741;48.964;9.406;2023-02-15T00:26:24;23.93;;;15.83;;
13343;SDS011;6741;48.964;9.406;2023-02-15T00:28:51;25.83;;;16.93;;
13343;SDS011;6741;48.964;9.406;2023-02-15T00:31:18;21.73;;;15.73;;
13343;SDS011;6741;48.964;9.406;2023-02-15T00:33:46;23.40;;;15.63;;
13343;SDS011;6741;48.964;9.406;2023-02-15T00:36:13;22.87;;;15.63;;
13343;SDS011;6741;48.964;9.406;2023-02-15T00:38:41;29.57;;;17.63;;
13343;SDS011;6741;48.964;9.406;2023-02-15T00:41:08;23.77;;;15.90;;
13343;SDS011;6741;48.964;9.406;2023-02-15T00:43:35;23.70;;;16.57;;
13343;SDS011;6741;48.964;9.406;2023-02-15T00:46:03;23.47;;;16.47;;
13343;SDS011;6741;48.964;9.406;2023-02-15T00:48:31;26.87;;;16.10;;
13343;SDS011;6741;48.964;9.406;2023-02-15T00:50:59;22.83;;;15.07;;
13343;SDS011;6741;48.964;9.406;2023-02-15T00:53:27;22.73;;;15.40;;
13343;SDS011;6741;48.964;9.406;2023-02-15T00:55:56;23.57;;;16.17;;
13343;SDS011;6741;48.964;9.406;2023-02-15T00:58:23;22.30;;;15.27;;
13343;SDS011;6741;48.964;9.406;2023-02-15T01:00:50;25.50;;;16.00;;
13343;SDS011;6741;48.964;9.406;2023-02-15T01:03:18;25.47;;;16.73;;
13343;SDS011;6741;48.964;9.406;2023-02-15T01:05:46;23.23;;;15.93;;
13343;SDS011;6741;48.964;9.406;2023-02-15T01:08:14;27.70;;;16.90;;
13343;SDS011;6741;48.964;9.406;2023-02-15T01:10:41;23.63;;;16.10;;
13343;SDS011;6741;48.964;9.406;2023-02-15T01:13:12;24.97;;;15.77;;
13343;SDS011;6741;48.964;9.406;2023-02-15T01:15:40;26.93;;;16.90;;
13343;SDS011;6741;48.964;9.406;2023-02-15T01:18:07;28.63;;;17.60;;
13343;SDS011;6741;48.964;9.406;2023-02-15T01:20:35;25.23;;;15.93;;
13343;SDS011;6741;48.964;9.406;2023-02-15T01:23:04;26.20;;;17.30;;
13343;SDS011;6741;48.964;9.406;2023-02-15T01:25:32;24.80;;;16.70;;
13343;SDS011;6741;48.964;9.406;2023-02-15T01:28:00;25.70;;;16.90;;
13343;SDS011;6741;48.964;9.406;2023-02-15T01:30:29;24.40;;;16.07;;
13343;SDS011;6741;48.964;9.406;2023-02-15T01:32:56;26.80;;;17.40;;
13343;SDS011;6741;48.964;9.406;2023-02-15T01:35:22;25.07;;;16.87;;
13343;SDS011;6741;48.964;9.406;2023-02-15T01:37:50;27.63;;;16.77;;
13343;SDS011;6741;48.964;9.406;2023-02-15T01:40:17;28.00;;;18.10;;
13343;SDS011;6741;48.964;9.406;2023-02-15T01:42:45;28.63;;;16.67;;
13343;SDS011;6741;48.964;9.406;2023-02-15T01:45:18;25.40;;;16.17;;
13343;SDS011;6741;48.964;9.406;2023-02-15T01:47:49;26.53;;;17.17;;
13343;SDS011;6741;48.964;9.406;2023-02-15T01:50:21;25.80;;;16.83;;
13343;SDS011;6741;48.964;9.406;2023-02-15T01:52:52;25.13;;;16.80;;
13343;SDS011;6741;48.964;9.406;2023-02-15T01:55:24;25.10;;;16.90;;
13343;SDS011;6741;48.964;9.406;2023-02-15T01:57:55;22.33;;;15.87;;
13343;SDS011;6741;48.964;9.406;2023-02-15T02:00:22;24.50;;;16.70;;
13343;SDS011;6741;48.964;9.406;2023-02-15T02:02:53;22.97;;;16.80;;
13343;SDS011;6741;48.964;9.406;2023-02-15T02:05:22;22.73;;;16.60;;
13343;SDS011;6741;48.964;9.406;2023-02-15T02:07:50;26.77;;;16.37;;
13343;SDS011;6741;48.964;9.406;2023-02-15T02:10:20;25.60;;;15.50;;
13343;SDS011;6741;48.964;9.406;2023-02-15T02:12:49;24.87;;;15.10;;
13343;SDS011;6741;48.964;9.406;2023-02-15T02:15:19;23.50;;;15.97;;
13343;SDS011;6741;48.964;9.406;2023-02-15T02:17:54;26.30;;;16.67;;
13343;SDS011;6741;48.964;9.406;2023-02-15T02:20:43;24.17;;;15.67;;
13343;SDS011;6741;48.964;9.406;2023-02-15T02:23:42;28.60;;;16.57;;
13343;SDS011;6741;48.964;9.406;2023-02-15T02:35:26;25.60;;;15.57;;
13343;SDS011;6741;48.964;9.406;2023-02-15T02:38:00;24.17;;;15.77;;
13343;SDS011;6741;48.964;9.406;2023-02-15T02:40:38;24.97;;;16.23;;
13343;SDS011;6741;48.964;9.406;2023-02-15T02:43:10;27.00;;;16.67;;
13343;SDS011;6741;48.964;9.406;2023-02-15T02:45:43;24.30;;;16.03;;
13343;SDS011;6741;48.964;9.406;2023-02-15T02:48:18;25.80;;;16.00;;
13343;SDS011;6741;48.964;9.406;2023-02-15T02:50:48;21.87;;;15.17;;
13343;SDS011;6741;48.964;9.406;2023-02-15T02:53:15;24.27;;;15.83;;
13343;SDS011;6741;48.964;9.406;2023-02-15T02:55:43;24.67;;;15.07;;
13343;SDS011;6741;48.964;9.406;2023-02-15T02:58:15;20.13;;;14.50;;
13343;SDS011;6741;48.964;9.406;2023-02-15T03:00:48;21.57;;;15.50;;
13343;SDS011;6741;48.964;9.406;2023-02-15T03:03:21;20.50;;;14.40;;
13343;SDS011;6741;48.964;9.406;2023-02-15T03:05:54;22.07;;;14.33;;
13343;SDS011;6741;48.964;9.406;2023-02-15T03:08:24;24.50;;;15.53;;
13343;SDS011;6741;48.964;9.406;2023-02-15T03:10:56;23.20;;;16.20;;
13343;SDS011;6741;48.964;9.406;2023-02-15T03:13:25;24.70;;;16.37;;
13343;SDS011;6741;48.964;9.406;2023-02-15T03:15:53;23.23;;;14.53;;
13343;SDS011;6741;48.964;9.406;2023-02-15T03:18:42;21.97;;;15.73;;
13343;SDS011;6741;48.964;9.406;2023-02-15T03:21:17;25.63;;;16.07;;
13343;SDS011;6741;48.964;9.406;2023-02-15T03:23:48;26.93;;;16.23;;
13343;SDS011;6741;48.964;9.406;2023-02-15T03:26:19;23.93;;;15.43;;
13343;SDS011;6741;48.964;9.406;2023-02-15T03:28:48;25.70;;;16.13;;
13343;SDS011;6741;48.964;9.406;2023-02-15T03:31:17;28.53;;;16.33;;
13343;SDS011;6741;48.964;9.406;2023-02-15T03:33:49;25.80;;;15.57;;
13343;SDS011;6741;48.964;9.406;2023-02-15T03:36:20;23.83;;;16.10;;
13343;SDS011;6741;48.964;9.406;2023-02-15T03:38:53;26.90;;;16.27;;
13343;SDS011;6741;48.964;9.406;2023-02-15T03:41:34;23.87;;;15.87;;
13343;SDS011;6741;48.964;9.406;2023-02-15T03:44:08;25.07;;;15.60;;
13343;SDS011;6741;48.964;9.406;2023-02-15T03:46:42;23.53;;;15.53;;
13343;SDS011;6741;48.964;9.406;2023-02-15T03:49:15;24.67;;;15.80;;
13343;SDS011;6741;48.964;9.406;2023-02-15T03:51:47;23.83;;;14.70;;
13343;SDS011;6741;48.964;9.406;2023-02-15T03:54:17;23.73;;;15.03;;
13343;SDS011;6741;48.964;9.406;2023-02-15T03:57:02;22.27;;;15.40;;
13343;SDS011;6741;48.964;9.406;2023-02-15T03:59:47;23.33;;;14.27;;
13343;SDS011;6741;48.964;9.406;2023-02-15T04:02:33;26.93;;;15.87;;
13343;SDS011;6741;48.964;9.406;2023-02-15T04:05:06;20.87;;;14.27;;
13343;SDS011;6741;48.964;9.406;2023-02-15T04:07:33;21.53;;;15.97;;
13343;SDS011;6741;48.964;9.406;2023-02-15T04:10:00;24.27;;;16.40;;
13343;SDS011;6741;48.964;9.406;2023-02-15T04:12:44;27.70;;;16.90;;
13343;SDS011;6741;48.964;9.406;2023-02-15T04:15:11;24.70;;;15.80;;
13343;SDS011;6741;48.964;9.406;2023-02-15T04:17:56;21.97;;;15.33;;
13343;SDS011;6741;48.964;9.406;2023-02-15T04:20:24;37.57;;;21.60;;
13343;SDS011;6741;48.964;9.406;2023-02-15T04:23:09;25.97;;;18.00;;
13343;SDS011;6741;48.964;9.406;2023-02-15T04:25:53;211.73;;;34.60;;
13343;SDS011;6741;48.964;9.406;2023-02-15T04:28:19;32.50;;;20.20;;
13343;SDS011;6741;48.964;9.406;2023-02-15T04:30:46;24.10;;;17.63;;
13343;SDS011;6741;48.964;9.406;2023-02-15T04:33:13;26.70;;;17.07;;
13343;SDS011;6741;48.964;9.406;2023-02-15T04:35:42;23.17;;;16.33;;
13343;SDS011;6741;48.964;9.406;2023-02-15T04:38:10;25.40;;;15.20;;
13343;SDS011;6741;48.964;9.406;2023-02-15T04:40:37;23.43;;;15.13;;
13343;SDS011;6741;48.964;9.406;2023-02-15T04:43:04;23.57;;;14.53;;
13343;SDS011;6741;48.964;9.406;2023-02-15T04:45:31;23.83;;;15.30;;
13343;SDS011;6741;48.964;9.406;2023-02-15T04:47:58;18.10;;;13.73;;
13343;SDS011;6741;48.964;9.406;2023-02-15T04:50:25;21.03;;;14.97;;
13343;SDS011;6741;48.964;9.406;2023-02-15T04:52:53;22.90;;;14.57;;
13343;SDS011;6741;48.964;9.406;2023-02-15T04:55:20;20.37;;;14.13;;
13343;SDS011;6741;48.964;9.406;2023-02-15T04:57:47;21.00;;;14.00;;
13343;SDS011;6741;48.964;9.406;2023-02-15T05:00:14;26.10;;;15.20;;
13343;SDS011;6741;48.964;9.406;2023-02-15T05:02:41;20.67;;;14.80;;
13343;SDS011;6741;48.964;9.406;2023-02-15T05:05:08;20.77;;;14.47;;
13343;SDS011;6741;48.964;9.406;2023-02-15T05:07:38;21.30;;;14.20;;
13343;SDS011;6741;48.964;9.406;2023-02-15T05:10:07;22.10;;;15.00;;
13343;SDS011;6741;48.964;9.406;2023-02-15T05:12:34;21.47;;;14.70;;
13343;SDS011;6741;48.964;9.406;2023-02-15T05:15:01;20.53;;;15.13;;
13343;SDS011;6741;48.964;9.406;2023-02-15T05:17:28;20.87;;;14.67;;
13343;SDS011;6741;48.964;9.406;2023-02-15T05:19:55;20.90;;;14.57;;
13343;SDS011;6741;48.964;9.406;2023-02-15T05:22:22;21.57;;;14.37;;
13343;SDS011;6741;48.964;9.406;2023-02-15T05:24:48;23.70;;;15.90;;
13343;SDS011;6741;48.964;9.406;2023-02-15T05:27:34;24.17;;;15.87;;
13343;SDS011;6741;48.964;9.406;2023-02-15T05:30:19;23.90;;;14.50;;
13343;SDS011;6741;48.964;9.406;2023-02-15T05:32:46;23.40;;;15.30;;
13343;SDS011;6741;48.964;9.406;2023-02-15T05:35:13;20.00;;;14.70;;
13343;SDS011;6741;48.964;9.406;2023-02-15T05:37:41;20.10;;;14.10;;
13343;SDS011;6741;48.964;9.406;2023-02-15T05:40:09;23.73;;;15.03;;
13343;SDS011;6741;48.964;9.406;2023-02-15T05:42:38;19.33;;;12.83;;
13343;SDS011;6741;48.964;9.406;2023-02-15T05:45:05;20.60;;;13.93;;
13343;SDS011;6741;48.964;9.406;2023-02-15T05:47:33;22.57;;;14.97;;
13343;SDS011;6741;48.964;9.406;2023-02-15T05:50:00;23.23;;;14.10;;
13343;SDS011;6741;48.964;9.406;2023-02-15T05:52:27;22.17;;;14.33;;
13343;SDS011;6741;48.964;9.406;2023-02-15T05:54:54;21.80;;;14.30;;
13343;SDS011;6741;48.964;9.406;2023-02-15T05:57:23;23.30;;;14.63;;
13343;SDS011;6741;48.964;9.406;2023-02-15T05:59:52;22.80;;;14.37;;
13343;SDS011;6741;48.964;9.406;2023-02-15T06:02:19;29.63;;;16.43;;
13343;SDS011;6741;48.964;9.406;2023-02-15T06:04:50;23.60;;;15.57;;
13343;SDS011;6741;48.964;9.406;2023-02-15T06:07:17;27.77;;;16.13;;
13343;SDS011;6741;48.964;9.406;2023-02-15T06:09:45;29.90;;;17.33;;
13343;SDS011;6741;48.964;9.406;2023-02-15T06:12:12;29.50;;;17.80;;
13343;SDS011;6741;48.964;9.406;2023-02-15T06:14:39;28.00;;;17.57;;
13343;SDS011;6741;48.964;9.406;2023-02-15T06:17:07;25.93;;;16.83;;
13343;SDS011;6741;48.964;9.406;2023-02-15T06:19:34;25.20;;;16.47;;
13343;SDS011;6741;48.964;9.406;2023-02-15T06:22:01;26.27;;;17.13;;
13343;SDS011;6741;48.964;9.406;2023-02-15T06:24:28;26.20;;;16.13;;
13343;SDS011;6741;48.964;9.406;2023-02-15T06:26:55;25.43;;;15.80;;
13343;SDS011;6741;48.964;9.406;2023-02-15T06:29:22;27.40;;;15.47;;
13343;SDS011;6741;48.964;9.406;2023-02-15T06:31:49;26.70;;;16.17;;
13343;SDS011;6741;48.964;9.406;2023-02-15T06:34:17;24.10;;;14.57;;
13343;SDS011;6741;48.964;9.406;2023-02-15T06:36:44;23.00;;;15.13;;
13343;SDS011;6741;48.964;9.406;2023-02-15T06:39:11;23.23;;;16.37;;
13343;SDS011;6741;48.964;9.406;2023-02-15T06:41:38;25.23;;;16.17;;
13343;SDS011;6741;48.964;9.406;2023-02-15T06:44:05;22.13;;;16.03;;
13343;SDS011;6741;48.964;9.406;2023-02-15T06:46:32;23.63;;;16.83;;
13343;SDS011;6741;48.964;9.406;2023-02-15T06:48:59;23.67;;;15.73;;
13343;SDS011;6741;48.964;9.406;2023-02-15T06:51:28;22.87;;;15.13;;
13343;SDS011;6741;48.964;9.406;2023-02-15T06:53:55;21.57;;;14.90;;
13343;SDS011;6741;48.964;9.406;2023-02-15T06:56:21;28.50;;;17.60;;
13343;SDS011;6741;48.964;9.406;2023-02-15T06:58:48;29.57;;;18.57;;
13343;SDS011;6741;48.964;9.406;2023-02-15T07:01:15;26.70;;;18.53;;
13343;SDS011;6741;48.964;9.406;2023-02-15T07:03:42;26.50;;;19.37;;
13343;SDS011;6741;48.964;9.406;2023-02-15T07:06:09;31.77;;;21.27;;
13343;SDS011;6741;48.964;9.406;2023-02-15T07:08:38;30.27;;;20.80;;
13343;SDS011;6741;48.964;9.406;2023-02-15T07:11:05;32.30;;;21.63;;
13343;SDS011;6741;48.964;9.406;2023-02-15T07:13:55;40.87;;;27.87;;
13343;SDS011;6741;48.964;9.406;2023-02-15T07:16:22;35.80;;;24.77;;
13343;SDS011;6741;48.964;9.406;2023-02-15T07:18:49;28.27;;;21.27;;
13343;SDS011;6741;48.964;9.406;2023-02-15T07:21:16;39.27;;;27.07;;
13343;SDS011;6741;48.964;9.406;2023-02-15T07:23:44;31.83;;;21.03;;
13343;SDS011;6741;48.964;9.406;2023-02-15T07:26:11;30.73;;;19.50;;
13343;SDS011;6741;48.964;9.406;2023-02-15T07:28:38;31.30;;;21.57;;
13343;SDS011;6741;48.964;9.406;2023-02-15T07:31:05;36.20;;;22.53;;
13343;SDS011;6741;48.964;9.406;2023-02-15T07:33:32;41.57;;;27.77;;
13343;SDS011;6741;48.964;9.406;2023-02-15T07:36:01;32.70;;;21.63;;
13343;SDS011;6741;48.964;9.406;2023-02-15T07:38:30;42.53;;;24.63;;
13343;SDS011;6741;48.964;9.406;2023-02-15T07:40:59;41.80;;;26.13;;
13343;SDS011;6741;48.964;9.406;2023-02-15T07:43:26;40.33;;;24.93;;
13343;SDS011;6741;48.964;9.406;2023-02-15T07:45:54;29.83;;;20.67;;
13343;SDS011;6741;48.964;9.406;2023-02-15T07:48:24;27.37;;;19.17;;
13343;SDS011;6741;48.964;9.406;2023-02-15T07:50:51;27.37;;;18.40;;
13343;SDS011;6741;48.964;9.406;2023-02-15T07:53:18;26.47;;;17.83;;
13343;SDS011;6741;48.964;9.406;2023-02-15T07:55:45;25.37;;;17.03;;
13343;SDS011;6741;48.964;9.406;2023-02-15T07:58:13;25.77;;;17.30;;
13343;SDS011;6741;48.964;9.406;2023-02-15T08:00:40;27.90;;;18.50;;
13343;SDS011;6741;48.964;9.406;2023-02-15T08:03:34;23.50;;;16.63;;
13343;SDS011;6741;48.964;9.406;2023-02-15T08:06:01;25.70;;;19.27;;
13343;SDS011;6741;48.964;9.406;2023-02-15T08:08:28;24.20;;;17.80;;
13343;SDS011;6741;48.964;9.406;2023-02-15T08:10:58;22.07;;;15.90;;
13343;SDS011;6741;48.964;9.406;2023-02-15T08:13:44;20.97;;;14.40;;
13343;SDS011;6741;48.964;9.406;2023-02-15T08:16:19;19.70;;;14.40;;
13343;SDS011;6741;48.964;9.406;2023-02-15T08:18:48;19.33;;;13.97;;
13343;SDS011;6741;48.964;9.406;2023-02-15T08:21:15;21.97;;;15.10;;
13343;SDS011;6741;48.964;9.406;2023-02-15T08:23:42;22.43;;;15.90;;
13343;SDS011;6741;48.964;9.406;2023-02-15T08:26:09;78.60;;;23.53;;
13343;SDS011;6741;48.964;9.406;2023-02-15T08:28:36;23.73;;;16.47;;
13343;SDS011;6741;48.964;9.406;2023-02-15T08:31:06;40.57;;;24.67;;
13343;SDS011;6741;48.964;9.406;2023-02-15T08:33:34;31.57;;;21.47;;
13343;SDS011;6741;48.964;9.406;2023-02-15T08:36:04;24.57;;;16.27;;
13343;SDS011;6741;48.964;9.406;2023-02-15T08:38:32;35.13;;;24.83;;
13343;SDS011;6741;48.964;9.406;2023-02-15T08:41:08;31.50;;;23.13;;
13343;SDS011;6741;48.964;9.406;2023-02-15T08:43:39;30.97;;;21.33;;
13343;SDS011;6741;48.964;9.406;2023-02-15T08:46:07;42.90;;;27.23;;
13343;SDS011;6741;48.964;9.406;2023-02-15T08:48:35;30.63;;;20.87;;
13343;SDS011;6741;48.964;9.406;2023-02-15T08:51:10;36.63;;;23.53;;
13343;SDS011;6741;48.964;9.406;2023-02-15T08:53:39;29.30;;;19.73;;
13343;SDS011;6741;48.964;9.406;2023-02-15T08:56:07;25.80;;;18.00;;
13343;SDS011;6741;48.964;9.406;2023-02-15T08:58:34;23.27;;;16.33;;
13343;SDS011;6741;48.964;9.406;2023-02-15T09:01:07;22.67;;;15.97;;
13343;SDS011;6741;48.964;9.406;2023-02-15T09:03:35;28.43;;;16.97;;
13343;SDS011;6741;48.964;9.406;2023-02-15T09:06:02;23.43;;;16.50;;
13343;SDS011;6741;48.964;9.406;2023-02-15T09:08:30;25.47;;;16.70;;
13343;SDS011;6741;48.964;9.406;2023-02-15T09:11:04;24.30;;;17.00;;
13343;SDS011;6741;48.964;9.406;2023-02-15T09:13:33;23.53;;;17.67;;
13343;SDS011;6741;48.964;9.406;2023-02-15T09:16:00;24.23;;;17.27;;
13343;SDS011;6741;48.964;9.406;2023-02-15T09:18:28;23.53;;;17.27;;
13343;SDS011;6741;48.964;9.406;2023-02-15T09:20:56;30.40;;;18.43;;
13343;SDS011;6741;48.964;9.406;2023-02-15T09:23:22;27.40;;;18.13;;
13343;SDS011;6741;48.964;9.406;2023-02-15T09:25:51;25.07;;;18.50;;
13343;SDS011;6741;48.964;9.406;2023-02-15T09:28:18;23.60;;;18.13;;
13343;SDS011;6741;48.964;9.406;2023-02-15T09:30:44;23.57;;;17.10;;
13343;SDS011;6741;48.964;9.406;2023-02-15T09:33:11;28.17;;;18.70;;
13343;SDS011;6741;48.964;9.406;2023-02-15T09:35:38;25.47;;;18.03;;
13343;SDS011;6741;48.964;9.406;2023-02-15T09:38:05;25.83;;;17.43;;
13343;SDS011;6741;48.964;9.406;2023-02-15T09:40:33;24.90;;;17.93;;
13343;SDS011;6741;48.964;9.406;2023-02-15T09:43:12;23.73;;;16.93;;
13343;SDS011;6741;48.964;9.406;2023-02-15T09:48:42;25.83;;;17.80;;
13343;SDS011;6741;48.964;9.406;2023-02-15T09:54:11;26.90;;;18.80;;
13343;SDS011;6741;48.964;9.406;2023-02-15T09:56:49;25.33;;;17.47;;
13343;SDS011;6741;48.964;9.406;2023-02-15T09:59:24;24.83;;;17.53;;
13343;SDS011;6741;48.964;9.406;2023-02-15T10:02:01;26.47;;;18.47;;
13343;SDS011;6741;48.964;9.406;2023-02-15T10:04:51;24.17;;;17.33;;
13343;SDS011;6741;48.964;9.406;2023-02-15T10:07:40;25.43;;;18.93;;
13343;SDS011;6741;48.964;9.406;2023-02-15T10:10:22;26.20;;;18.37;;
13343;SDS011;6741;48.964;9.406;2023-02-15T10:12:59;22.97;;;17.10;;
13343;SDS011;6741;48.964;9.406;2023-02-15T10:15:41;24.80;;;17.80;;
13343;SDS011;6741;48.964;9.406;2023-02-15T10:18:25;22.57;;;17.90;;
13343;SDS011;6741;48.964;9.406;2023-02-15T10:21:03;22.47;;;17.27;;
13343;SDS011;6741;48.964;9.406;2023-02-15T10:23:41;22.37;;;17.07;;
13343;SDS011;6741;48.964;9.406;2023-02-15T10:26:19;22.80;;;18.03;;
13343;SDS011;6741;48.964;9.406;2023-02-15T10:28:48;21.33;;;16.57;;
13343;SDS011;6741;48.964;9.406;2023-02-15T10:31:24;23.30;;;16.87;;
13343;SDS011;6741;48.964;9.406;2023-02-15T10:33:59;21.30;;;16.13;;
13343;SDS011;6741;48.964;9.406;2023-02-15T10:36:39;21.23;;;16.47;;
13343;SDS011;6741;48.964;9.406;2023-02-15T10:39:23;18.40;;;15.97;;
13343;SDS011;6741;48.964;9.406;2023-02-15T10:41:57;22.93;;;17.97;;
13343;SDS011;6741;48.964;9.406;2023-02-15T10:44:34;18.70;;;15.83;;
13343;SDS011;6741;48.964;9.406;2023-02-15T10:47:19;19.93;;;15.00;;
13343;SDS011;6741;48.964;9.406;2023-02-15T10:50:21;19.47;;;15.23;;
13343;SDS011;6741;48.964;9.406;2023-02-15T10:53:14;20.03;;;16.37;;
13343;SDS011;6741;48.964;9.406;2023-02-15T10:55:52;18.27;;;15.40;;
13343;SDS011;6741;48.964;9.406;2023-02-15T10:58:28;19.13;;;15.13;;
13343;SDS011;6741;48.964;9.406;2023-02-15T11:01:02;18.63;;;15.33;;
13343;SDS011;6741;48.964;9.406;2023-02-15T11:03:42;19.73;;;15.53;;
13343;SDS011;6741;48.964;9.406;2023-02-15T11:06:18;19.53;;;15.63;;
13343;SDS011;6741;48.964;9.406;2023-02-15T11:08:48;18.27;;;15.07;;
13343;SDS011;6741;48.964;9.406;2023-02-15T11:11:20;17.30;;;15.17;;
13343;SDS011;6741;48.964;9.406;2023-02-15T11:13:50;16.33;;;14.63;;
13343;SDS011;6741;48.964;9.406;2023-02-15T11:16:21;17.90;;;15.17;;
13343;SDS011;6741;48.964;9.406;2023-02-15T11:18:53;16.90;;;15.10;;
13343;SDS011;6741;48.964;9.406;2023-02-15T11:21:24;18.00;;;14.60;;
13343;SDS011;6741;48.964;9.406;2023-02-15T11:23:54;17.40;;;14.80;;
13343;SDS011;6741;48.964;9.406;2023-02-15T11:26:22;16.97;;;15.00;;
13343;SDS011;6741;48.964;9.406;2023-02-15T11:28:55;16.77;;;14.53;;
13343;SDS011;6741;48.964;9.406;2023-02-15T11:31:26;16.90;;;14.53;;
13343;SDS011;6741;48.964;9.406;2023-02-15T11:34:12;18.43;;;14.53;;
13343;SDS011;6741;48.964;9.406;2023-02-15T11:36:44;17.50;;;14.80;;
13343;SDS011;6741;48.964;9.406;2023-02-15T11:39:14;16.03;;;13.93;;
13343;SDS011;6741;48.964;9.406;2023-02-15T11:41:44;19.67;;;15.43;;
13343;SDS011;6741;48.964;9.406;2023-02-15T11:44:17;17.20;;;14.87;;
13343;SDS011;6741;48.964;9.406;2023-02-15T11:46:48;18.10;;;14.00;;
13343;SDS011;6741;48.964;9.406;2023-02-15T11:49:20;20.03;;;14.63;;
13343;SDS011;6741;48.964;9.406;2023-02-15T11:51:49;19.60;;;14.70;;
13343;SDS011;6741;48.964;9.406;2023-02-15T11:54:17;22.50;;;15.17;;
13343;SDS011;6741;48.964;9.406;2023-02-15T11:56:52;16.77;;;14.00;;
13343;SDS011;6741;48.964;9.406;2023-02-15T11:59:23;16.57;;;13.50;;
13343;SDS011;6741;48.964;9.406;2023-02-15T12:01:55;15.23;;;13.07;;
13343;SDS011;6741;48.964;9.406;2023-02-15T12:04:24;16.10;;;14.40;;
13343;SDS011;6741;48.964;9.406;2023-02-15T12:06:55;15.80;;;13.93;;
13343;SDS011;6741;48.964;9.406;2023-02-15T12:09:29;15.80;;;13.13;;
13343;SDS011;6741;48.964;9.406;2023-02-15T12:14:46;15.07;;;13.38;;
13343;SDS011;6741;48.964;9.406;2023-02-15T12:17:14;15.73;;;13.88;;
13343;SDS011;6741;48.964;9.406;2023-02-15T12:19:44;14.10;;;12.65;;
13343;SDS011;6741;48.964;9.406;2023-02-15T12:22:18;14.02;;;12.52;;
13343;SDS011;6741;48.964;9.406;2023-02-15T12:24:49;14.00;;;12.13;;
13343;SDS011;6741;48.964;9.406;2023-02-15T12:27:19;12.73;;;11.38;;
13343;SDS011;6741;48.964;9.406;2023-02-15T12:29:48;14.07;;;11.85;;
13343;SDS011;6741;48.964;9.406;2023-02-15T12:32:18;14.43;;;10.90;;
13343;SDS011;6741;48.964;9.406;2023-02-15T12:34:49;12.65;;;11.45;;
13343;SDS011;6741;48.964;9.406;2023-02-15T12:37:19;12.57;;;11.00;;
13343;SDS011;6741;48.964;9.406;2023-02-15T12:39:53;11.52;;;10.40;;
13343;SDS011;6741;48.964;9.406;2023-02-15T12:42:24;11.10;;;10.00;;
13343;SDS011;6741;48.964;9.406;2023-02-15T12:44:55;12.55;;;9.90;;
13343;SDS011;6741;48.964;9.406;2023-02-15T12:47:23;10.90;;;9.75;;
13343;SDS011;6741;48.964;9.406;2023-02-15T12:50:10;14.30;;;9.95;;
13343;SDS011;6741;48.964;9.406;2023-02-15T12:52:43;13.20;;;9.93;;
13343;SDS011;6741;48.964;9.406;2023-02-15T12:55:18;14.73;;;10.70;;
13343;SDS011;6741;48.964;9.406;2023-02-15T12:57:48;14.25;;;9.88;;
13343;SDS011;6741;48.964;9.406;2023-02-15T13:00:25;12.15;;;10.85;;
13343;SDS011;6741;48.964;9.406;2023-02-15T13:02:56;20.88;;;10.52;;
13343;SDS011;6741;48.964;9.406;2023-02-15T13:05:28;13.32;;;10.77;;
13343;SDS011;6741;48.964;9.406;2023-02-15T13:08:00;15.18;;;11.10;;
13343;SDS011;6741;48.964;9.406;2023-02-15T13:10:28;13.05;;;10.82;;
13343;SDS011;6741;48.964;9.406;2023-02-15T13:12:59;12.07;;;10.60;;
13343;SDS011;6741;48.964;9.406;2023-02-15T13:15:33;14.30;;;9.90;;
13343;SDS011;6741;48.964;9.406;2023-02-15T13:18:05;12.43;;;9.93;;
13343;SDS011;6741;48.964;9.406;2023-02-15T13:20:41;11.23;;;9.85;;
13343;SDS011;6741;48.964;9.406;2023-02-15T13:23:13;13.50;;;9.68;;
13343;SDS011;6741;48.964;9.406;2023-02-15T13:25:52;10.40;;;8.95;;
13343;SDS011;6741;48.964;9.406;2023-02-15T13:28:22;11.30;;;10.18;;
13343;SDS011;6741;48.964;9.406;2023-02-15T13:30:53;11.05;;;9.95;;
13343;SDS011;6741;48.964;9.406;2023-02-15T13:33:23;9.93;;;9.00;;
13343;SDS011;6741;48.964;9.406;2023-02-15T13:36:00;11.32;;;10.23;;
13343;SDS011;6741;48.964;9.406;2023-02-15T13:38:43;15.10;;;9.60;;
13343;SDS011;6741;48.964;9.406;2023-02-15T13:41:16;10.98;;;9.82;;
13343;SDS011;6741;48.964;9.406;2023-02-15T13:43:50;11.23;;;9.18;;
13343;SDS011;6741;48.964;9.406;2023-02-15T13:46:28;10.38;;;9.23;;
13343;SDS011;6741;48.964;9.406;2023-02-15T13:49:09;13.40;;;9.80;;
13343;SDS011;6741;48.964;9.406;2023-02-15T13:51:46;9.77;;;8.77;;
13343;SDS011;6741;48.964;9.406;2023-02-15T13:57:23;10.95;;;9.85;;
13343;SDS011;6741;48.964;9.406;2023-02-15T14:00:13;10.88;;;9.77;;
13343;SDS011;6741;48.964;9.406;2023-02-15T14:05:56;10.93;;;9.70;;
13343;SDS011;6741;48.964;9.406;2023-02-15T14:08:39;10.02;;;9.05;;
13343;SDS011;6741;48.964;9.406;2023-02-15T14:11:21;11.30;;;10.10;;
13343;SDS011;6741;48.964;9.406;2023-02-15T14:14:01;9.93;;;9.02;;
13343;SDS011;6741;48.964;9.406;2023-02-15T14:16:41;10.73;;;9.65;;
13343;SDS011;6741;48.964;9.406;2023-02-15T14:19:19;10.90;;;9.77;;
13343;SDS011;6741;48.964;9.406;2023-02-15T14:21:56;10.88;;;9.77;;
13343;SDS011;6741;48.964;9.406;2023-02-15T14:24:32;11.30;;;10.20;;
13343;SDS011;6741;48.964;9.406;2023-02-15T14:27:10;11.07;;;9.88;;
13343;SDS011;6741;48.964;9.406;2023-02-15T14:29:47;10.32;;;9.30;;
13343;SDS011;6741;48.964;9.406;2023-02-15T14:32:20;10.45;;;9.45;;
13343;SDS011;6741;48.964;9.406;2023-02-15T14:34:52;11.13;;;10.05;;
13343;SDS011;6741;48.964;9.406;2023-02-15T14:37:23;11.85;;;9.70;;
13343;SDS011;6741;48.964;9.406;2023-02-15T14:39:59;12.27;;;10.35;;
13343;SDS011;6741;48.964;9.406;2023-02-15T14:42:48;13.50;;;11.48;;
13343;SDS011;6741;48.964;9.406;2023-02-15T14:45:24;15.13;;;12.38;;
13343;SDS011;6741;48.964;9.406;2023-02-15T14:47:59;17.83;;;12.70;;
13343;SDS011;6741;48.964;9.406;2023-02-15T14:50:37;17.15;;;13.43;;
13343;SDS011;6741;48.964;9.406;2023-02-15T14:56:18;21.85;;;14.35;;
13343;SDS011;6741;48.964;9.406;2023-02-15T14:58:55;18.45;;;14.57;;
13343;SDS011;6741;48.964;9.406;2023-02-15T15:01:27;22.30;;;13.70;;
13343;SDS011;6741;48.964;9.406;2023-02-15T15:03:57;22.08;;;15.23;;
13343;SDS011;6741;48.964;9.406;2023-02-15T15:06:27;23.10;;;15.32;;
13343;SDS011;6741;48.964;9.406;2023-02-15T15:08:55;16.90;;;15.13;;
13343;SDS011;6741;48.964;9.406;2023-02-15T15:11:41;17.95;;;15.95;;
13343;SDS011;6741;48.964;9.406;2023-02-15T15:14:13;24.60;;;14.73;;
13343;SDS011;6741;48.964;9.406;2023-02-15T15:17:08;21.43;;;15.67;;
13343;SDS011;6741;48.964;9.406;2023-02-15T15:22:38;22.73;;;16.90;;
13343;SDS011;6741;48.964;9.406;2023-02-15T15:25:09;20.00;;;16.20;;
13343;SDS011;6741;48.964;9.406;2023-02-15T15:27:40;19.40;;;15.90;;
13343;SDS011;6741;48.964;9.406;2023-02-15T15:36:30;21.43;;;15.63;;
13343;SDS011;6741;48.964;9.406;2023-02-15T15:39:43;22.80;;;16.80;;